createdAt,value
2022-11-30T00:00:05.413Z,21.96
2022-11-30T00:02:41.752Z,21.90
2022-11-30T00:05:13.491Z,21.92
2022-11-30T00:07:43.987Z,21.93
2022-11-30T00:10:14.617Z,21.97
2022-11-30T00:12:44.537Z,21.90
2022-11-30T00:15:18.150Z,21.88
2022-11-30T00:17:49.457Z,21.89
2022-11-30T00:20:19.595Z,21.86
2022-11-30T00:22:49.646Z,21.79
2022-11-30T00:25:19.823Z,21.81
2022-11-30T00:27:49.742Z,21.78
2022-11-30T00:30:19.545Z,21.71
2022-11-30T00:32:49.349Z,21.71
2022-11-30T00:35:19.215Z,21.69
2022-11-30T00:37:48.933Z,21.66
2022-11-30T00:40:18.903Z,21.67
2022-11-30T00:42:48.729Z,21.67
2022-11-30T00:45:18.627Z,21.67
2022-11-30T00:47:48.339Z,21.72
2022-11-30T00:50:18.103Z,21.67
2022-11-30T00:52:48.014Z,21.65
2022-11-30T00:55:17.882Z,21.67
2022-11-30T00:57:47.602Z,21.63
2022-11-30T01:00:17.840Z,21.62
2022-11-30T01:02:48.031Z,21.55
2022-11-30T01:05:17.791Z,21.52
2022-11-30T01:07:47.511Z,21.56
2022-11-30T01:10:17.735Z,21.54
2022-11-30T01:12:47.664Z,21.55
2022-11-30T01:15:17.443Z,21.55
2022-11-30T01:17:47.120Z,21.55
2022-11-30T01:20:16.913Z,21.55
2022-11-30T01:22:46.598Z,21.52
2022-11-30T01:25:16.319Z,21.52
2022-11-30T01:27:50.398Z,21.49
2022-11-30T01:30:20.956Z,21.49
2022-11-30T01:32:50.944Z,21.48
2022-11-30T01:35:20.709Z,21.46
2022-11-30T01:37:51.017Z,21.42
2022-11-30T01:40:21.005Z,21.39
2022-11-30T01:42:50.711Z,21.32
2022-11-30T01:45:20.379Z,21.34
2022-11-30T01:47:55.265Z,21.41
2022-11-30T01:50:32.175Z,21.34
2022-11-30T01:53:05.157Z,21.28
2022-11-30T01:55:43.432Z,21.30
2022-11-30T01:58:17.913Z,21.38
2022-11-30T02:00:50.018Z,21.37
2022-11-30T02:03:40.689Z,21.37
2022-11-30T02:06:11.678Z,21.42
2022-11-30T02:08:41.384Z,21.44
2022-11-30T02:11:16.830Z,21.41
2022-11-30T02:13:55.001Z,21.37
2022-11-30T02:16:49.408Z,21.37
2022-11-30T02:19:44.128Z,21.30
2022-11-30T02:22:50.837Z,21.37
2022-11-30T02:25:48.965Z,21.32
2022-11-30T02:28:42.975Z,21.30
2022-11-30T02:31:20.228Z,21.24
2022-11-30T02:33:52.464Z,21.20
2022-11-30T02:36:24.516Z,21.18
2022-11-30T02:38:54.576Z,21.18
2022-11-30T02:41:24.310Z,21.11
2022-11-30T02:43:54.584Z,21.17
2022-11-30T02:46:35.213Z,21.21
2022-11-30T02:49:28.409Z,21.21
2022-11-30T02:51:59.858Z,21.14
2022-11-30T02:54:30.082Z,21.04
2022-11-30T02:56:59.791Z,21.01
2022-11-30T02:59:30.171Z,20.91
2022-11-30T03:02:00.071Z,20.83
2022-11-30T03:04:29.827Z,20.70
2022-11-30T03:07:00.261Z,20.66
2022-11-30T03:09:29.993Z,20.56
2022-11-30T03:11:59.812Z,20.47
2022-11-30T03:14:29.521Z,20.42
2022-11-30T03:16:59.226Z,20.36
2022-11-30T03:19:29.063Z,20.22
2022-11-30T03:21:58.791Z,20.16
2022-11-30T03:24:28.642Z,20.22
2022-11-30T03:26:58.392Z,20.26
2022-11-30T03:29:28.288Z,20.47
2022-11-30T03:31:57.999Z,20.42
2022-11-30T03:34:28.772Z,20.56
2022-11-30T03:36:58.545Z,20.70
2022-11-30T03:39:29.321Z,20.62
2022-11-30T03:41:59.085Z,20.45
2022-11-30T03:44:28.853Z,20.39
2022-11-30T03:46:58.597Z,20.22
2022-11-30T03:49:28.435Z,20.18
2022-11-30T03:51:58.119Z,20.12
2022-11-30T03:54:27.821Z,20.04
2022-11-30T03:56:57.616Z,19.92
2022-11-30T03:59:27.368Z,19.82
2022-11-30T04:01:57.302Z,19.74
2022-11-30T04:04:27.283Z,19.66
2022-11-30T04:06:56.961Z,19.60
2022-11-30T04:09:26.740Z,19.47
2022-11-30T04:11:56.444Z,19.45
2022-11-30T04:14:26.181Z,19.34
2022-11-30T04:16:55.883Z,19.31
2022-11-30T04:19:25.780Z,19.27
2022-11-30T04:21:55.528Z,19.22
2022-11-30T04:24:25.222Z,19.19
2022-11-30T04:26:54.982Z,19.15
2022-11-30T04:29:24.923Z,19.15
2022-11-30T04:31:54.734Z,19.08
2022-11-30T04:34:24.526Z,19.09
2022-11-30T04:36:58.834Z,19.06
2022-11-30T04:39:30.307Z,19.09
2022-11-30T04:41:59.963Z,19.02
2022-11-30T04:44:29.640Z,18.95
2022-11-30T04:46:59.938Z,18.87
2022-11-30T04:49:30.028Z,18.81
2022-11-30T04:52:01.563Z,18.82
2022-11-30T04:54:33.295Z,18.79
2022-11-30T04:57:03.166Z,18.78
2022-11-30T04:59:32.848Z,18.76
2022-11-30T05:02:02.571Z,18.72
2022-11-30T05:04:32.505Z,18.67
2022-11-30T05:07:02.560Z,18.64
2022-11-30T05:09:32.300Z,18.64
2022-11-30T05:12:02.222Z,18.61
2022-11-30T05:14:31.928Z,18.65
2022-11-30T05:17:01.599Z,18.64
2022-11-30T05:19:31.329Z,18.67
2022-11-30T05:22:01.192Z,18.61
2022-11-30T05:24:30.887Z,18.60
2022-11-30T05:27:01.047Z,18.61
2022-11-30T05:29:30.849Z,18.58
2022-11-30T05:32:00.513Z,18.61
2022-11-30T05:34:30.263Z,18.57
2022-11-30T05:37:01.741Z,18.55
2022-11-30T05:39:31.754Z,18.54
2022-11-30T05:42:01.420Z,18.52
2022-11-30T05:44:31.660Z,18.50
2022-11-30T05:47:01.523Z,18.48
2022-11-30T05:49:31.570Z,18.44
2022-11-30T05:52:01.249Z,18.43
2022-11-30T05:54:30.920Z,18.41
2022-11-30T05:57:00.620Z,18.38
2022-11-30T05:59:30.299Z,18.37
2022-11-30T06:02:00.389Z,18.37
2022-11-30T06:04:30.290Z,18.38
2022-11-30T06:07:00.025Z,18.34
2022-11-30T06:09:30.672Z,18.30
2022-11-30T06:12:00.972Z,18.29
2022-11-30T06:14:31.050Z,18.29
2022-11-30T06:17:00.799Z,18.30
2022-11-30T06:19:30.531Z,18.23
2022-11-30T06:22:00.194Z,18.21
2022-11-30T06:24:30.782Z,18.21
2022-11-30T06:27:00.484Z,18.24
2022-11-30T06:29:30.197Z,18.20
2022-11-30T06:31:59.988Z,18.20
2022-11-30T06:34:34.338Z,18.17
2022-11-30T06:37:04.555Z,18.18
2022-11-30T06:40:04.210Z,18.20
2022-11-30T06:42:24.339Z,18.17
2022-11-30T06:44:54.044Z,18.21
2022-11-30T06:47:23.791Z,18.13
2022-11-30T06:49:53.565Z,18.12
2022-11-30T06:52:24.011Z,18.10
2022-11-30T06:54:53.900Z,18.16
2022-11-30T06:57:27.419Z,18.12
2022-11-30T06:59:59.166Z,18.10
2022-11-30T07:02:29.436Z,18.03
2022-11-30T07:04:59.150Z,18.02
2022-11-30T07:07:31.586Z,17.97
2022-11-30T07:10:01.779Z,18.00
2022-11-30T07:12:31.523Z,18.00
2022-11-30T07:15:01.495Z,18.02
2022-11-30T07:17:31.225Z,18.02
2022-11-30T07:20:01.118Z,18.00
2022-11-30T07:22:31.153Z,18.00
2022-11-30T07:25:18.875Z,18.00
2022-11-30T07:27:48.288Z,17.99
2022-11-30T07:30:18.402Z,17.97
2022-11-30T07:32:48.600Z,17.97
2022-11-30T07:35:18.474Z,17.96
2022-11-30T07:37:48.665Z,17.96
2022-11-30T07:40:18.574Z,17.90
2022-11-30T07:42:49.148Z,17.90
2022-11-30T07:45:18.966Z,17.90
2022-11-30T07:47:48.729Z,17.87
2022-11-30T07:50:18.554Z,17.87
2022-11-30T07:52:48.307Z,17.86
2022-11-30T07:55:19.327Z,17.83
2022-11-30T07:57:49.247Z,17.82
2022-11-30T08:00:18.988Z,17.82
2022-11-30T08:02:52.363Z,17.83
2022-11-30T08:05:24.666Z,17.83
2022-11-30T08:07:55.671Z,17.85
2022-11-30T08:10:26.287Z,17.87
2022-11-30T08:12:56.045Z,17.86
2022-11-30T08:15:32.187Z,17.90
2022-11-30T08:18:06.717Z,17.89
2022-11-30T08:20:36.674Z,17.89
2022-11-30T08:23:06.494Z,17.92
2022-11-30T08:25:36.855Z,17.92
2022-11-30T08:28:07.191Z,17.92
2022-11-30T08:30:37.360Z,17.94
2022-11-30T08:33:07.167Z,17.99
2022-11-30T08:35:36.879Z,18.00
2022-11-30T08:38:06.800Z,18.02
2022-11-30T08:40:36.612Z,18.03
2022-11-30T08:43:06.291Z,18.04
2022-11-30T08:45:36.378Z,18.07
2022-11-30T08:48:06.367Z,18.12
2022-11-30T08:50:36.122Z,18.18
2022-11-30T08:56:04.649Z,18.37
2022-11-30T08:58:38.554Z,18.43
2022-11-30T09:01:16.250Z,18.51
2022-11-30T09:03:48.138Z,18.58
2022-11-30T09:06:23.498Z,18.64
2022-11-30T09:08:54.879Z,18.68
2022-11-30T09:11:30.977Z,18.79
2022-11-30T09:14:03.123Z,18.89
2022-11-30T09:16:33.210Z,19.02
2022-11-30T09:19:03.363Z,19.13
2022-11-30T09:21:33.251Z,19.43
2022-11-30T09:24:03.267Z,22.06
2022-11-30T09:26:34.014Z,20.98
2022-11-30T09:29:04.054Z,20.43
2022-11-30T09:31:39.509Z,20.22
2022-11-30T09:34:12.238Z,20.79
2022-11-30T09:36:42.402Z,22.44
2022-11-30T09:39:14.204Z,23.70
2022-11-30T09:41:59.974Z,24.52
2022-11-30T09:44:38.636Z,24.35
2022-11-30T09:47:45.868Z,24.17
2022-11-30T09:50:26.133Z,24.62
2022-11-30T09:53:16.329Z,22.91
2022-11-30T09:55:46.759Z,22.37
2022-11-30T09:58:34.652Z,22.20
2022-11-30T10:01:07.435Z,22.25
2022-11-30T10:03:37.695Z,22.30
2022-11-30T10:06:16.771Z,22.37
2022-11-30T10:09:09.770Z,22.31
2022-11-30T10:11:47.407Z,22.64
2022-11-30T10:14:34.831Z,24.12
2022-11-30T10:17:21.090Z,25.02
2022-11-30T10:20:02.876Z,26.19
2022-11-30T10:22:50.950Z,25.65
2022-11-30T10:25:37.739Z,24.91
2022-11-30T10:28:45.459Z,25.51
2022-11-30T10:31:17.360Z,25.21
2022-11-30T10:33:55.987Z,24.79
2022-11-30T10:36:30.832Z,24.52
2022-11-30T10:39:14.440Z,24.91
2022-11-30T10:41:59.259Z,24.56
2022-11-30T10:44:37.247Z,24.70
2022-11-30T10:47:17.591Z,25.11
2022-11-30T10:49:54.255Z,25.64
2022-11-30T10:52:28.626Z,26.45
2022-11-30T10:55:04.132Z,26.80
2022-11-30T10:57:35.520Z,26.85
2022-11-30T11:00:07.514Z,27.05
2022-11-30T11:02:49.413Z,27.46
2022-11-30T11:05:31.274Z,27.38
2022-11-30T11:08:19.747Z,27.77
2022-11-30T11:10:52.779Z,28.01
2022-11-30T11:13:39.787Z,28.56
2022-11-30T11:16:13.368Z,28.75
2022-11-30T11:18:58.295Z,28.46
2022-11-30T11:21:28.223Z,28.56
2022-11-30T11:23:59.970Z,28.73
2022-11-30T11:26:31.767Z,29.13
2022-11-30T11:29:02.492Z,29.35
2022-11-30T11:31:45.344Z,29.37
2022-11-30T11:34:32.748Z,29.66
2022-11-30T11:37:24.739Z,29.75
2022-11-30T11:40:02.600Z,29.64
2022-11-30T11:42:59.275Z,29.75
2022-11-30T11:45:39.089Z,30.03
2022-11-30T11:48:31.004Z,30.54
2022-11-30T11:51:07.148Z,28.90
2022-11-30T11:53:55.495Z,30.09
2022-11-30T11:56:35.443Z,30.43
2022-11-30T11:59:11.707Z,29.48
2022-11-30T12:02:09.240Z,29.65
2022-11-30T12:04:50.030Z,29.86
2022-11-30T12:07:48.177Z,30.74
2022-11-30T12:10:51.715Z,30.19
2022-11-30T12:13:29.122Z,29.82
2022-11-30T12:16:16.861Z,30.30
2022-11-30T12:18:47.233Z,29.75
2022-11-30T12:21:20.448Z,30.81
2022-11-30T12:23:53.758Z,30.78
2022-11-30T12:26:45.767Z,30.37
2022-11-30T12:29:48.217Z,30.72
2022-11-30T12:32:32.901Z,31.53
2022-11-30T12:35:14.937Z,30.92
2022-11-30T12:37:55.755Z,31.38
2022-11-30T12:40:34.504Z,32.16
2022-11-30T12:43:18.453Z,31.90
2022-11-30T12:45:50.006Z,30.88
2022-11-30T12:48:39.799Z,31.07
2022-11-30T12:51:30.182Z,31.66
2022-11-30T12:54:13.535Z,31.02
2022-11-30T12:57:08.211Z,30.74
2022-11-30T13:00:07.147Z,30.43
2022-11-30T13:02:43.253Z,31.11
2022-11-30T13:05:31.797Z,32.34
2022-11-30T13:08:16.048Z,31.23
2022-11-30T13:10:48.596Z,30.77
2022-11-30T13:13:27.821Z,30.56
2022-11-30T13:16:00.528Z,32.06
2022-11-30T13:18:32.418Z,31.36
2022-11-30T13:21:35.078Z,32.37
2022-11-30T13:24:23.489Z,32.41
2022-11-30T13:27:33.425Z,32.27
2022-11-30T13:30:21.780Z,31.98
2022-11-30T13:32:59.285Z,32.28
2022-11-30T13:35:32.605Z,31.65
2022-11-30T13:38:37.445Z,31.32
2022-11-30T13:41:10.223Z,32.28
2022-11-30T13:43:48.987Z,31.91
2022-11-30T13:46:25.069Z,31.32
2022-11-30T13:49:24.179Z,31.87
2022-11-30T13:52:20.537Z,31.01
2022-11-30T13:54:51.647Z,31.18
2022-11-30T13:57:31.115Z,30.64
2022-11-30T14:00:02.298Z,31.16
2022-11-30T14:02:34.221Z,31.94
2022-11-30T14:05:19.182Z,32.28
2022-11-30T14:07:52.206Z,31.32
2022-11-30T14:10:36.656Z,31.53
2022-11-30T14:13:26.504Z,31.40
2022-11-30T14:16:01.630Z,30.82
2022-11-30T14:18:35.265Z,30.75
2022-11-30T14:21:32.694Z,31.83
2022-11-30T14:24:23.083Z,31.50
2022-11-30T14:26:54.043Z,32.41
2022-11-30T14:29:45.101Z,33.57
2022-11-30T14:32:39.903Z,33.91
2022-11-30T14:35:15.136Z,32.86
2022-11-30T14:37:55.114Z,32.46
2022-11-30T14:40:27.847Z,31.86
2022-11-30T14:43:03.099Z,31.19
2022-11-30T14:45:35.639Z,31.50
2022-11-30T14:48:18.908Z,32.00
2022-11-30T14:50:56.154Z,32.51
2022-11-30T14:53:56.598Z,33.22
2022-11-30T14:56:48.452Z,32.56
2022-11-30T14:59:51.360Z,32.25
2022-11-30T15:02:27.134Z,31.45
2022-11-30T15:04:58.092Z,32.17
2022-11-30T15:07:30.759Z,32.85
2022-11-30T15:10:10.980Z,33.02
2022-11-30T15:12:43.973Z,33.04
2022-11-30T15:15:25.055Z,33.60
2022-11-30T15:18:20.095Z,33.29
2022-11-30T15:21:01.470Z,33.44
2022-11-30T15:23:31.978Z,31.70
2022-11-30T15:26:12.968Z,31.67
2022-11-30T15:28:47.103Z,33.16
2022-11-30T15:31:18.307Z,33.54
2022-11-30T15:33:51.528Z,34.42
2022-11-30T15:36:33.398Z,33.95
2022-11-30T15:39:10.105Z,32.54
2022-11-30T15:41:40.542Z,31.50
2022-11-30T15:44:28.766Z,30.64
2022-11-30T15:47:03.833Z,30.43
2022-11-30T15:49:37.464Z,30.17
2022-11-30T15:52:10.147Z,31.59
2022-11-30T15:54:53.856Z,32.54
2022-11-30T15:57:26.026Z,31.93
2022-11-30T16:00:21.928Z,32.95
2022-11-30T16:03:07.881Z,33.19
2022-11-30T16:05:39.326Z,33.47
2022-11-30T16:08:20.076Z,33.12
2022-11-30T16:10:50.090Z,33.41
2022-11-30T16:13:23.061Z,33.53
2022-11-30T16:15:54.090Z,33.80
2022-11-30T16:18:26.312Z,33.68
2022-11-30T16:20:59.991Z,33.94
2022-11-30T16:23:30.446Z,34.02
2022-11-30T16:26:00.982Z,33.55
2022-11-30T16:28:30.663Z,33.04
2022-11-30T16:31:03.424Z,33.40
2022-11-30T16:33:34.953Z,33.68
2022-11-30T16:36:22.426Z,33.17
2022-11-30T16:38:54.577Z,32.34
2022-11-30T16:41:26.739Z,32.65
2022-11-30T16:43:58.943Z,33.02
2022-11-30T16:46:30.875Z,33.13
2022-11-30T16:49:01.037Z,33.07
2022-11-30T16:51:36.520Z,32.87
2022-11-30T16:54:07.148Z,32.89
2022-11-30T16:56:36.854Z,32.73
2022-11-30T16:59:07.456Z,32.87
2022-11-30T17:01:48.947Z,32.71
2022-11-30T17:04:24.946Z,33.04
2022-11-30T17:07:02.211Z,32.86
2022-11-30T17:09:35.565Z,32.66
2022-11-30T17:12:05.911Z,32.72
2022-11-30T17:14:35.595Z,32.79
2022-11-30T17:17:05.577Z,32.61
2022-11-30T17:19:35.390Z,32.46
2022-11-30T17:22:05.264Z,32.73
2022-11-30T17:24:35.873Z,33.20
2022-11-30T17:27:06.820Z,33.53
2022-11-30T17:29:36.628Z,33.46
2022-11-30T17:32:06.764Z,33.24
2022-11-30T17:34:36.438Z,32.99
2022-11-30T17:37:06.225Z,32.86
2022-11-30T17:39:37.235Z,32.72
2022-11-30T17:42:07.556Z,32.56
2022-11-30T17:44:37.416Z,32.01
2022-11-30T17:47:07.597Z,32.29
2022-11-30T17:49:37.314Z,32.56
2022-11-30T17:52:06.973Z,32.35
2022-11-30T17:54:37.097Z,32.42
2022-11-30T17:57:06.921Z,32.41
2022-11-30T17:59:36.586Z,32.59
2022-11-30T18:02:06.619Z,32.44
2022-11-30T18:04:36.495Z,32.37
2022-11-30T18:07:06.234Z,32.38
2022-11-30T18:09:42.210Z,32.54
2022-11-30T18:12:13.720Z,32.41
2022-11-30T18:14:43.452Z,31.96
2022-11-30T18:17:14.257Z,32.23
2022-11-30T18:19:44.595Z,32.58
2022-11-30T18:22:14.320Z,32.38
2022-11-30T18:24:44.016Z,32.42
2022-11-30T18:27:13.678Z,32.29
2022-11-30T18:29:43.537Z,32.21
2022-11-30T18:32:14.140Z,32.18
2022-11-30T18:34:45.159Z,32.11
2022-11-30T18:37:16.534Z,31.73
2022-11-30T18:39:46.289Z,31.91
2022-11-30T18:42:16.075Z,31.73
2022-11-30T18:44:46.066Z,31.84
2022-11-30T18:47:16.173Z,31.80
2022-11-30T18:49:45.905Z,31.77
2022-11-30T18:52:15.593Z,31.54
2022-11-30T18:54:45.459Z,31.47
2022-11-30T18:57:15.368Z,31.45
2022-11-30T18:59:46.735Z,30.96
2022-11-30T19:02:20.215Z,30.33
2022-11-30T19:04:50.617Z,30.09
2022-11-30T19:07:20.496Z,29.82
2022-11-30T19:09:50.711Z,29.62
2022-11-30T19:12:20.417Z,29.35
2022-11-30T19:14:50.435Z,29.10
2022-11-30T19:17:20.221Z,29.23
2022-11-30T19:19:49.902Z,29.24
2022-11-30T19:22:20.512Z,28.93
2022-11-30T19:24:50.420Z,28.77
2022-11-30T19:27:20.324Z,28.62
2022-11-30T19:29:50.357Z,28.38
2022-11-30T19:32:20.296Z,28.19
2022-11-30T19:34:51.095Z,28.12
2022-11-30T19:37:21.195Z,27.86
2022-11-30T19:39:51.253Z,27.73
2022-11-30T19:42:21.343Z,27.71
2022-11-30T19:44:51.211Z,27.84
2022-11-30T19:47:21.040Z,27.90
2022-11-30T19:49:51.606Z,27.86
2022-11-30T19:52:21.619Z,27.83
2022-11-30T19:54:51.266Z,27.67
2022-11-30T19:57:21.375Z,27.59
2022-11-30T19:59:51.160Z,27.32
2022-11-30T20:02:21.028Z,27.06
2022-11-30T20:04:51.041Z,26.85
2022-11-30T20:07:20.907Z,26.80
2022-11-30T20:09:50.627Z,26.71
2022-11-30T20:12:20.543Z,26.68
2022-11-30T20:14:52.658Z,26.72
2022-11-30T20:17:24.442Z,26.57
2022-11-30T20:19:54.513Z,26.50
2022-11-30T20:22:24.203Z,26.48
2022-11-30T20:24:55.740Z,26.34
2022-11-30T20:27:26.398Z,26.27
2022-11-30T20:29:58.352Z,26.17
2022-11-30T20:32:28.779Z,26.07
2022-11-30T20:34:58.480Z,25.99
2022-11-30T20:37:28.205Z,26.04
2022-11-30T20:39:58.200Z,26.00
2022-11-30T20:42:27.968Z,25.90
2022-11-30T20:44:57.673Z,25.83
2022-11-30T20:47:29.882Z,25.75
2022-11-30T20:50:04.975Z,25.82
2022-11-30T20:52:35.371Z,25.72
2022-11-30T20:55:05.418Z,25.62
2022-11-30T20:57:35.246Z,25.57
2022-11-30T21:00:11.487Z,25.46
2022-11-30T21:02:43.102Z,25.46
2022-11-30T21:05:13.081Z,25.51
2022-11-30T21:07:43.399Z,25.49
2022-11-30T21:10:13.908Z,25.38
2022-11-30T21:12:45.639Z,25.33
2022-11-30T21:15:15.568Z,25.23
2022-11-30T21:17:45.439Z,25.18
2022-11-30T21:20:15.124Z,25.14
2022-11-30T21:22:44.791Z,25.18
2022-11-30T21:25:14.637Z,25.18
2022-11-30T21:27:44.400Z,25.18
2022-11-30T21:30:14.780Z,25.08
2022-11-30T21:32:44.659Z,25.00
2022-11-30T21:35:15.119Z,24.97
2022-11-30T21:37:45.023Z,24.93
2022-11-30T21:40:14.949Z,25.02
2022-11-30T21:42:45.106Z,25.04
2022-11-30T21:45:15.461Z,24.97
2022-11-30T21:47:45.445Z,24.90
2022-11-30T21:50:15.135Z,24.93
2022-11-30T21:52:44.964Z,24.90
2022-11-30T21:55:14.639Z,24.77
2022-11-30T21:57:44.453Z,24.73
2022-11-30T22:00:15.672Z,24.63
2022-11-30T22:02:46.420Z,24.60
2022-11-30T22:05:16.305Z,24.63
2022-11-30T22:07:48.123Z,24.59
2022-11-30T22:10:18.446Z,24.49
2022-11-30T22:12:48.124Z,24.43
2022-11-30T22:15:17.869Z,24.42
2022-11-30T22:17:47.982Z,24.33
2022-11-30T22:20:18.015Z,24.26
2022-11-30T22:22:47.685Z,24.22
2022-11-30T22:25:17.407Z,24.19
2022-11-30T22:27:47.183Z,24.15
2022-11-30T22:30:16.990Z,24.17
2022-11-30T22:32:46.883Z,24.12
2022-11-30T22:35:16.629Z,24.08
2022-11-30T22:37:46.327Z,24.08
2022-11-30T22:40:16.316Z,24.04
2022-11-30T22:42:46.129Z,24.00
2022-11-30T22:45:16.119Z,24.00
2022-11-30T22:47:45.868Z,23.94
2022-11-30T22:50:15.638Z,23.96
2022-11-30T22:53:02.579Z,23.98
2022-11-30T22:55:33.982Z,23.98
2022-11-30T22:58:04.115Z,23.93
2022-11-30T23:00:33.831Z,23.87
2022-11-30T23:03:03.686Z,23.80
2022-11-30T23:05:36.459Z,23.67
2022-11-30T23:08:06.868Z,23.56
2022-11-30T23:10:37.072Z,23.50
2022-11-30T23:13:07.643Z,23.45
2022-11-30T23:15:37.378Z,23.42
2022-11-30T23:18:07.533Z,23.39
2022-11-30T23:20:37.517Z,23.33
2022-11-30T23:23:07.273Z,23.33
2022-11-30T23:25:37.180Z,23.27
2022-11-30T23:28:07.154Z,23.24
2022-11-30T23:30:36.835Z,23.22
2022-11-30T23:33:06.511Z,23.20
2022-11-30T23:35:36.234Z,23.20
2022-11-30T23:38:05.919Z,23.19
2022-11-30T23:40:35.972Z,23.19
2022-11-30T23:43:05.765Z,23.16
2022-11-30T23:45:35.819Z,23.19
2022-11-30T23:48:05.656Z,23.20
2022-11-30T23:50:35.473Z,23.19
2022-11-30T23:53:05.173Z,23.18
2022-11-30T23:55:36.742Z,23.19
2022-11-30T23:58:06.890Z,23.15
